createdAt,value
2019-01-30T00:00:41.252Z,99.48
2019-01-30T00:01:51.328Z,99.66
2019-01-30T00:03:01.373Z,99.66
2019-01-30T00:04:11.466Z,99.66
2019-01-30T00:05:21.254Z,99.38
2019-01-30T00:06:31.059Z,99.48
2019-01-30T00:07:40.847Z,99.66
2019-01-30T00:08:50.899Z,99.48
2019-01-30T00:10:01.178Z,99.95
2019-01-30T00:11:11.292Z,99.95
2019-01-30T00:12:21.354Z,99.95
2019-01-30T00:13:31.477Z,99.9
2019-01-30T00:14:41.539Z,99.99
2019-01-30T00:15:58.619Z,99.71
2019-01-30T00:17:08.953Z,99.99
2019-01-30T00:18:19.018Z,99.71
2019-01-30T00:19:29.075Z,99.99
2019-01-30T00:20:39.125Z,99.99
2019-01-30T00:21:49.197Z,99.9
2019-01-30T00:22:59.465Z,99.99
2019-01-30T00:24:09.277Z,99.43
2019-01-30T00:25:19.328Z,99.33
2019-01-30T00:26:31.797Z,99.43
2019-01-30T00:27:42.000Z,99.9
2019-01-30T00:28:51.839Z,99.99
2019-01-30T00:30:06.791Z,99.9
2019-01-30T00:31:16.866Z,99.62
2019-01-30T00:32:26.958Z,99.99
2019-01-30T00:33:37.026Z,99.71
2019-01-30T00:34:47.141Z,99.71
2019-01-30T00:35:57.207Z,99.62
2019-01-30T00:37:07.024Z,99.62
2019-01-30T00:38:17.190Z,99.99
2019-01-30T00:39:27.260Z,99.99
2019-01-30T00:40:36.605Z,99.99
2019-01-30T00:41:46.413Z,99.99
2019-01-30T00:42:56.211Z,99.99
2019-01-30T00:44:05.841Z,99.99
2019-01-30T00:45:15.890Z,99.99
2019-01-30T00:46:26.399Z,99.99
2019-01-30T00:47:37.487Z,99.99
2019-01-30T00:48:47.560Z,99.62
2019-01-30T00:49:57.673Z,99.62
2019-01-30T00:51:08.764Z,99.99
2019-01-30T00:52:18.830Z,99.9
2019-01-30T00:53:28.903Z,99.8
2019-01-30T00:54:39.218Z,99.8
2019-01-30T00:55:49.034Z,99.71
2019-01-30T00:56:59.119Z,99.71
2019-01-30T00:58:09.311Z,99.71
2019-01-30T00:59:19.368Z,99.8
2019-01-30T01:00:29.420Z,99.99
2019-01-30T01:01:39.482Z,99.99
2019-01-30T01:02:49.282Z,99.71
2019-01-30T01:03:59.073Z,99.99
2019-01-30T01:05:09.153Z,99.99
2019-01-30T01:06:19.214Z,99.99
2019-01-30T01:07:29.044Z,99.99
2019-01-30T01:08:38.907Z,99.71
2019-01-30T01:09:48.783Z,99.71
2019-01-30T01:10:59.015Z,99.8
2019-01-30T01:12:09.086Z,99.52
2019-01-30T01:13:19.113Z,99.9
2019-01-30T01:14:29.183Z,99.43
2019-01-30T01:15:38.732Z,99.62
2019-01-30T01:16:49.005Z,99.66
2019-01-30T01:17:59.063Z,99.62
2019-01-30T01:19:09.187Z,99.85
2019-01-30T01:20:19.261Z,99.52
2019-01-30T01:21:29.310Z,99.57
2019-01-30T01:22:39.372Z,99.57
2019-01-30T01:23:49.420Z,99.8
2019-01-30T01:24:59.478Z,99.85
2019-01-30T01:26:09.610Z,99.57
2019-01-30T01:27:19.702Z,99.85
2019-01-30T01:28:29.918Z,99.66
2019-01-30T01:29:39.622Z,99.85
2019-01-30T01:30:49.489Z,99.57
2019-01-30T01:31:59.556Z,99.66
2019-01-30T01:33:09.099Z,99.85
2019-01-30T01:34:19.152Z,99.66
2019-01-30T01:35:29.291Z,99.85
2019-01-30T01:36:39.358Z,99.57
2019-01-30T01:37:49.434Z,99.57
2019-01-30T01:38:59.710Z,99.95
2019-01-30T01:40:09.784Z,99.09
2019-01-30T01:41:19.857Z,99.09
2019-01-30T01:42:29.912Z,99.09
2019-01-30T01:43:39.975Z,99.66
2019-01-30T01:44:50.048Z,99.09
2019-01-30T01:46:00.275Z,99.09
2019-01-30T01:47:10.343Z,99.19
2019-01-30T01:48:20.620Z,99.19
2019-01-30T01:49:30.687Z,99.09
2019-01-30T01:50:40.762Z,99.09
2019-01-30T01:51:50.845Z,99.85
2019-01-30T01:53:01.057Z,99.76
2019-01-30T01:54:10.937Z,99.09
2019-01-30T01:55:21.058Z,99.09
2019-01-30T01:56:31.141Z,99.19
2019-01-30T01:57:41.308Z,99.09
2019-01-30T01:58:51.371Z,99.09
2019-01-30T02:00:01.563Z,99.09
2019-01-30T02:01:12.069Z,99.09
2019-01-30T02:02:21.895Z,99.09
2019-01-30T02:03:31.970Z,99.09
2019-01-30T02:04:42.045Z,99.19
2019-01-30T02:05:52.146Z,99.19
2019-01-30T02:07:01.948Z,99.09
2019-01-30T02:08:12.210Z,99
2019-01-30T02:09:22.356Z,99
2019-01-30T02:10:32.187Z,99.28
2019-01-30T02:11:43.459Z,99.57
2019-01-30T02:12:53.322Z,99.38
2019-01-30T02:14:03.536Z,99.57
2019-01-30T02:15:13.378Z,99.66
2019-01-30T02:16:23.729Z,99.57
2019-01-30T02:17:33.908Z,99.57
2019-01-30T02:18:44.159Z,99.85
2019-01-30T02:19:54.225Z,99.76
2019-01-30T02:21:04.286Z,99.85
2019-01-30T02:22:14.350Z,99.57
2019-01-30T02:23:24.173Z,99.38
2019-01-30T02:24:34.241Z,99.99
2019-01-30T02:25:44.055Z,99.76
2019-01-30T02:26:53.841Z,99.76
2019-01-30T02:28:03.872Z,99.66
2019-01-30T02:29:14.028Z,99.66
2019-01-30T02:30:25.166Z,99.99
2019-01-30T02:31:34.986Z,99.85
2019-01-30T02:32:45.294Z,99.71
2019-01-30T02:33:55.393Z,99.99
2019-01-30T02:35:08.459Z,99.95
2019-01-30T02:36:18.521Z,99.99
2019-01-30T02:37:28.645Z,99.99
2019-01-30T02:38:38.847Z,99.61
2019-01-30T02:39:48.679Z,99.52
2019-01-30T02:40:58.739Z,99.89
2019-01-30T02:42:10.012Z,99.61
2019-01-30T02:43:19.996Z,99.71
2019-01-30T02:44:29.808Z,99.33
2019-01-30T02:45:39.881Z,99.71
2019-01-30T02:46:49.963Z,99.8
2019-01-30T02:48:00.007Z,99.99
2019-01-30T02:49:10.929Z,99.33
2019-01-30T02:50:20.729Z,99.52
2019-01-30T02:51:30.519Z,99.61
2019-01-30T02:52:40.728Z,99.71
2019-01-30T02:53:50.819Z,99.57
2019-01-30T02:55:00.878Z,99.76
2019-01-30T02:56:11.186Z,99.85
2019-01-30T02:57:21.609Z,99.57
2019-01-30T02:58:31.708Z,99.28
2019-01-30T02:59:42.114Z,99
2019-01-30T03:01:01.675Z,99.09
2019-01-30T03:02:11.754Z,99.09
2019-01-30T03:34:37.663Z,92.9
2019-01-30T03:35:47.721Z,92.8
2019-01-30T03:36:57.770Z,94.03
2019-01-30T03:38:08.945Z,94.98
2019-01-30T03:39:18.492Z,95.83
2019-01-30T03:40:28.531Z,96.96
2019-01-30T03:41:38.843Z,97.43
2019-01-30T03:42:48.645Z,98.28
2019-01-30T03:43:58.965Z,98.38
2019-01-30T03:45:09.029Z,98.85
2019-01-30T03:46:18.595Z,98.85
2019-01-30T03:47:28.391Z,99.7
2019-01-30T03:48:38.439Z,99.51
2019-01-30T03:49:48.723Z,99.75
2019-01-30T03:50:58.819Z,99.46
2019-01-30T03:52:08.921Z,99.46
2019-01-30T03:53:18.979Z,99.27
2019-01-30T03:54:28.769Z,99.65
2019-01-30T03:55:38.340Z,99.94
2019-01-30T03:56:48.149Z,99.94
2019-01-30T03:57:58.459Z,99.94
2019-01-30T03:59:09.124Z,99.94
2019-01-30T04:00:19.378Z,99.94
2019-01-30T04:01:29.705Z,99.75
2019-01-30T04:02:39.487Z,99.75
2019-01-30T04:03:49.287Z,99.75
2019-01-30T04:04:59.599Z,99.75
2019-01-30T04:06:09.402Z,99.18
2019-01-30T04:07:19.463Z,99.18
2019-01-30T04:08:29.530Z,99.27
2019-01-30T04:09:39.677Z,99.37
2019-01-30T04:10:49.754Z,99.27
2019-01-30T04:11:59.808Z,99.27
2019-01-30T04:13:09.366Z,99.27
2019-01-30T04:14:19.409Z,99.56
2019-01-30T04:15:29.513Z,99.56
2019-01-30T04:16:39.300Z,99.75
2019-01-30T04:17:49.111Z,99.56
2019-01-30T04:18:58.972Z,99.71
2019-01-30T04:20:09.037Z,99.65
2019-01-30T04:21:18.836Z,99.56
2019-01-30T04:22:28.639Z,99.46
2019-01-30T04:23:38.695Z,99.65
2019-01-30T04:24:48.245Z,99.65
2019-01-30T04:25:58.331Z,99.65
2019-01-30T04:27:09.326Z,99.46
2019-01-30T04:28:19.389Z,99.46
2019-01-30T04:29:29.464Z,99.46
2019-01-30T04:30:39.514Z,99.84
2019-01-30T04:31:49.610Z,99.65
2019-01-30T04:32:59.904Z,99.75
2019-01-30T04:34:09.712Z,99.56
2019-01-30T04:35:19.524Z,99.56
2019-01-30T04:36:29.709Z,99.65
2019-01-30T04:37:39.914Z,99.65
2019-01-30T04:38:50.184Z,99.65
2019-01-30T04:40:00.316Z,99.65
2019-01-30T04:41:10.182Z,99.65
2019-01-30T04:42:19.996Z,99.56
2019-01-30T04:43:30.073Z,99.37
2019-01-30T04:44:40.128Z,99.37
2019-01-30T04:45:49.926Z,99.65
2019-01-30T04:46:59.786Z,99.46
2019-01-30T04:48:09.832Z,99.56
2019-01-30T04:49:19.636Z,99.65
2019-01-30T04:50:29.436Z,99.56
2019-01-30T04:51:39.271Z,99.65
2019-01-30T04:52:49.363Z,99.27
2019-01-30T04:53:59.153Z,99.65
2019-01-30T04:55:09.241Z,99.84
2019-01-30T04:56:19.378Z,99.84
2019-01-30T04:57:29.635Z,99.75
2019-01-30T04:58:39.534Z,98.99
2019-01-30T04:59:49.594Z,99.08
2019-01-30T05:00:59.640Z,99.04
2019-01-30T05:02:09.745Z,99.04
2019-01-30T05:03:19.782Z,98.95
2019-01-30T05:04:32.467Z,98.85
2019-01-30T05:05:42.585Z,99.23
2019-01-30T05:06:52.376Z,99.04
2019-01-30T05:08:02.878Z,99.04
2019-01-30T05:09:13.168Z,99.04
2019-01-30T05:10:22.759Z,98.76
2019-01-30T05:11:32.557Z,98.76
2019-01-30T05:12:42.740Z,99.23
2019-01-30T05:13:52.790Z,98.85
2019-01-30T05:15:04.464Z,98.85
2019-01-30T05:16:14.558Z,98.57
2019-01-30T05:17:24.766Z,98.85
2019-01-30T05:18:34.816Z,98.66
2019-01-30T05:19:44.863Z,98.66
2019-01-30T05:20:54.916Z,98.85
2019-01-30T05:22:04.455Z,99.14
2019-01-30T05:23:14.535Z,99.14
2019-01-30T05:24:24.336Z,99.23
2019-01-30T05:25:34.421Z,99.33
2019-01-30T05:26:43.954Z,98.95
2019-01-30T05:27:54.068Z,98.95
2019-01-30T05:29:04.113Z,99.33
2019-01-30T05:30:14.168Z,99.14
2019-01-30T05:31:24.532Z,99.04
2019-01-30T05:32:34.685Z,99.89
2019-01-30T05:33:44.755Z,99.89
2019-01-30T05:34:54.824Z,99.42
2019-01-30T05:36:04.639Z,99.61
2019-01-30T05:37:14.689Z,99.42
2019-01-30T05:38:24.500Z,99.42
2019-01-30T05:39:34.292Z,99.61
2019-01-30T05:40:44.084Z,99.33
2019-01-30T05:41:54.135Z,99.8
2019-01-30T05:43:04.193Z,99.71
2019-01-30T05:44:14.249Z,99.89
2019-01-30T05:45:24.056Z,99.8
2019-01-30T05:46:33.930Z,99.23
2019-01-30T05:47:44.043Z,99.89
2019-01-30T05:48:54.119Z,99.71
2019-01-30T05:50:04.171Z,99.61
2019-01-30T05:51:13.983Z,99.71
2019-01-30T05:52:23.514Z,99.89
2019-01-30T05:53:33.570Z,99.42
2019-01-30T05:54:43.616Z,99.66
2019-01-30T05:55:53.687Z,99.66
2019-01-30T05:57:03.986Z,99.76
2019-01-30T05:58:14.096Z,99.71
2019-01-30T05:59:24.372Z,99.38
2019-01-30T06:00:34.043Z,99.66
2019-01-30T06:01:44.354Z,99.57
2019-01-30T06:02:54.922Z,99.66
2019-01-30T06:04:04.996Z,99.57
2019-01-30T06:05:15.059Z,99.57
2019-01-30T06:06:25.118Z,99.47
2019-01-30T06:07:35.187Z,99.66
2019-01-30T06:08:45.258Z,99.66
2019-01-30T06:09:55.475Z,99.57
2019-01-30T06:11:05.904Z,99.57
2019-01-30T06:12:17.537Z,99.38
2019-01-30T06:13:27.321Z,99.47
2019-01-30T06:14:37.405Z,99.38
2019-01-30T06:15:47.485Z,99.38
2019-01-30T06:16:57.558Z,99.38
2019-01-30T06:18:07.635Z,99.38
2019-01-30T06:19:17.737Z,99.57
2019-01-30T06:20:27.775Z,99.38
2019-01-30T06:21:37.812Z,99.57
2019-01-30T06:22:48.077Z,99.47
2019-01-30T06:23:58.174Z,99.85
2019-01-30T06:25:10.860Z,99.85
2019-01-30T06:26:20.987Z,99.85
2019-01-30T06:27:31.151Z,99.38
2019-01-30T06:28:41.211Z,99.85
2019-01-30T06:29:51.295Z,99.38
2019-01-30T06:31:01.358Z,99.38
2019-01-30T06:32:21.470Z,99.57
2019-01-30T06:33:31.970Z,99.76
2019-01-30T06:34:42.035Z,99.57
2019-01-30T06:35:52.117Z,99.57
2019-01-30T06:37:03.477Z,99.57
2019-01-30T06:38:13.300Z,99.57
2019-01-30T06:39:23.411Z,99.57
2019-01-30T06:40:33.486Z,99.76
2019-01-30T06:41:43.796Z,99.76
2019-01-30T06:42:53.599Z,99.57
2019-01-30T06:44:05.886Z,99.66
2019-01-30T06:45:15.970Z,99.76
2019-01-30T06:46:25.806Z,99.66
2019-01-30T06:47:35.880Z,99.66
2019-01-30T06:48:45.948Z,99.47
2019-01-30T06:49:55.777Z,99.38
2019-01-30T06:51:06.633Z,99.57
2019-01-30T06:52:16.695Z,99.85
2019-01-30T06:53:26.495Z,99.85
2019-01-30T06:54:36.624Z,99.76
2019-01-30T06:55:48.779Z,99.66
2019-01-30T06:56:59.149Z,99.76
2019-01-30T06:58:09.462Z,99.95
2019-01-30T06:59:19.303Z,99.85
2019-01-30T07:00:29.363Z,99.95
2019-01-30T07:01:39.418Z,99.85
2019-01-30T07:02:49.307Z,99.09
2019-01-30T07:03:59.344Z,99.19
2019-01-30T07:05:08.909Z,99.09
2019-01-30T07:06:18.702Z,99.28
2019-01-30T07:07:28.805Z,99.09
2019-01-30T07:08:38.868Z,99.19
2019-01-30T07:09:48.668Z,99.09
2019-01-30T07:10:58.462Z,98.9
2019-01-30T07:12:17.771Z,99.09
2019-01-30T07:13:27.833Z,99
2019-01-30T07:14:37.638Z,99.28
2019-01-30T07:15:47.698Z,99.28
2019-01-30T07:16:57.749Z,99.09
2019-01-30T07:18:09.800Z,99.19
2019-01-30T07:19:19.860Z,99.38
2019-01-30T07:20:31.170Z,98.81
2019-01-30T07:21:41.193Z,99.19
2019-01-30T07:22:51.150Z,98.81
2019-01-30T07:24:01.221Z,98.9
2019-01-30T07:25:11.037Z,98.52
2019-01-30T07:26:21.111Z,98.43
2019-01-30T07:27:31.158Z,98.9
2019-01-30T07:28:41.268Z,98.14
2019-01-30T07:29:51.553Z,98.33
2019-01-30T07:31:01.637Z,98.58
2019-01-30T07:32:11.977Z,98.67
2019-01-30T07:33:21.864Z,98.86
2019-01-30T07:34:31.918Z,98.86
2019-01-30T07:35:41.967Z,98.67
2019-01-30T07:36:51.803Z,98.67
2019-01-30T07:38:03.734Z,98.2
2019-01-30T07:39:13.590Z,98.1
2019-01-30T07:40:23.694Z,98.29
2019-01-30T07:41:33.746Z,98.29
2019-01-30T07:42:43.815Z,98.01
2019-01-30T07:43:53.863Z,98.29
2019-01-30T07:45:03.910Z,98.01
2019-01-30T07:46:14.167Z,98.2
2019-01-30T07:47:24.243Z,98.2
2019-01-30T07:48:34.358Z,98.1
2019-01-30T07:49:44.513Z,98.01
2019-01-30T07:50:54.630Z,98.25
2019-01-30T07:52:04.446Z,98.25
2019-01-30T07:53:14.408Z,98.25
2019-01-30T07:54:24.477Z,98.06
2019-01-30T07:55:34.636Z,98.15
2019-01-30T07:56:44.706Z,98.06
2019-01-30T07:57:54.749Z,98.25
2019-01-30T07:59:04.781Z,98.34
2019-01-30T08:00:17.650Z,98.25
2019-01-30T08:01:28.504Z,98.25
2019-01-30T08:02:38.308Z,98.25
2019-01-30T08:03:58.260Z,98.15
2019-01-30T08:05:08.339Z,98.15
2019-01-30T08:06:19.601Z,98.25
2019-01-30T08:07:30.245Z,98.15
2019-01-30T08:08:40.040Z,98.15
2019-01-30T08:09:52.567Z,98.25
2019-01-30T08:11:02.783Z,98.58
2019-01-30T08:12:15.197Z,98.3
2019-01-30T08:13:25.323Z,98.3
2019-01-30T08:14:35.134Z,98.11
2019-01-30T08:15:45.209Z,98.49
2019-01-30T08:16:55.438Z,98.39
2019-01-30T08:18:04.977Z,98.39
2019-01-30T08:19:15.276Z,98.49
2019-01-30T08:20:25.348Z,98.49
2019-01-30T08:21:35.481Z,98.39
2019-01-30T08:22:45.619Z,98.49
2019-01-30T08:23:56.417Z,98.49
2019-01-30T08:25:07.524Z,98.58
2019-01-30T08:26:18.683Z,98.68
2019-01-30T08:27:31.253Z,98.49
2019-01-30T08:28:43.997Z,98.49
2019-01-30T08:29:54.676Z,98.54
2019-01-30T08:31:06.115Z,98.44
2019-01-30T08:32:16.897Z,98.63
2019-01-30T08:33:30.666Z,98.35
2019-01-30T08:34:40.478Z,98.35
2019-01-30T08:35:50.532Z,98.72
2019-01-30T08:37:01.156Z,98.16
2019-01-30T08:38:11.228Z,98.63
2019-01-30T08:39:21.280Z,98.16
2019-01-30T08:40:31.409Z,98.72
2019-01-30T08:41:41.752Z,98.72
2019-01-30T08:42:54.821Z,98.54
2019-01-30T08:44:04.889Z,98.63
2019-01-30T08:45:14.702Z,98.44
2019-01-30T08:46:24.816Z,98.63
2019-01-30T08:47:34.887Z,98.68
2019-01-30T08:48:44.941Z,98.58
2019-01-30T08:49:55.220Z,98.68
2019-01-30T08:51:05.558Z,98.58
2019-01-30T08:52:15.676Z,98.49
2019-01-30T08:53:25.750Z,98.58
2019-01-30T08:54:35.565Z,97.83
2019-01-30T08:55:45.626Z,97.69
2019-01-30T08:56:55.850Z,96.5
2019-01-30T08:58:07.378Z,95.79
2019-01-30T08:59:17.188Z,94.84
2019-01-30T09:00:27.253Z,94.42
2019-01-30T09:01:37.418Z,94.6
2019-01-30T09:02:47.215Z,94.42
2019-01-30T09:03:57.539Z,94.7
2019-01-30T09:05:07.355Z,94.84
2019-01-30T09:06:17.234Z,94.56
2019-01-30T09:07:27.031Z,94.7
2019-01-30T09:08:47.623Z,95.32
2019-01-30T09:09:57.799Z,95.6
2019-01-30T09:11:11.283Z,94.7
2019-01-30T09:12:21.420Z,95.7
2019-01-30T09:13:31.008Z,96.17
2019-01-30T09:14:41.051Z,97.17
2019-01-30T09:15:51.310Z,98.02
2019-01-30T09:17:02.363Z,98.21
2019-01-30T09:18:16.295Z,98.31
2019-01-30T09:19:26.348Z,99.07
2019-01-30T09:20:36.169Z,98.79
2019-01-30T09:21:46.244Z,98.69
2019-01-30T09:22:56.292Z,98.69
2019-01-30T09:24:08.712Z,98.64
2019-01-30T09:25:19.165Z,98.79
2019-01-30T09:26:29.220Z,98.02
2019-01-30T09:27:39.297Z,98.4
2019-01-30T09:28:49.394Z,98.31
2019-01-30T09:29:59.450Z,98.21
2019-01-30T09:31:10.826Z,98.21
2019-01-30T09:32:20.964Z,97.92
2019-01-30T09:33:30.796Z,98.02
2019-01-30T09:34:40.936Z,97.92
2019-01-30T09:35:51.000Z,98.17
2019-01-30T09:37:03.049Z,98.17
2019-01-30T09:38:12.973Z,98.02
2019-01-30T09:39:23.093Z,98.88
2019-01-30T09:40:32.702Z,98.69
2019-01-30T09:41:42.868Z,98.79
2019-01-30T09:42:52.984Z,98.69
2019-01-30T09:44:03.788Z,98.97
2019-01-30T09:45:13.907Z,99.16
2019-01-30T09:46:24.221Z,98.88
2019-01-30T09:47:34.444Z,98.97
2019-01-30T09:48:44.632Z,99.35
2019-01-30T09:49:54.723Z,98.97
2019-01-30T09:51:04.866Z,99.16
2019-01-30T09:52:14.977Z,99.16
2019-01-30T09:53:34.524Z,99.07
2019-01-30T09:54:44.777Z,99.07
2019-01-30T09:55:54.885Z,99.07
2019-01-30T09:57:05.057Z,98.79
2019-01-30T09:58:15.220Z,99.07
2019-01-30T09:59:26.951Z,98.69
2019-01-30T10:00:36.769Z,99.16
2019-01-30T10:01:46.854Z,98.97
2019-01-30T10:02:57.479Z,99.07
2019-01-30T10:04:07.304Z,98.97
2019-01-30T10:05:17.203Z,98.88
2019-01-30T10:06:27.014Z,98.88
2019-01-30T10:07:36.915Z,98.97
2019-01-30T10:08:47.422Z,98.88
2019-01-30T10:09:57.322Z,98.88
2019-01-30T10:11:07.386Z,98.88
2019-01-30T10:12:17.693Z,99.07
2019-01-30T10:13:27.849Z,99.07
2019-01-30T10:14:37.469Z,98.97
2019-01-30T10:15:47.038Z,99.07
2019-01-30T10:16:56.830Z,99.16
2019-01-30T10:18:06.901Z,99.16
2019-01-30T10:19:16.981Z,99.07
2019-01-30T10:20:27.038Z,99.07
2019-01-30T10:21:37.102Z,99.11
2019-01-30T10:22:47.184Z,99.26
2019-01-30T10:23:57.273Z,98.64
2019-01-30T10:25:07.364Z,98.54
2019-01-30T10:26:17.498Z,98.35
2019-01-30T10:27:27.254Z,98.54
2019-01-30T10:28:37.314Z,98.45
2019-01-30T10:29:47.391Z,98.35
2019-01-30T10:30:57.459Z,98.54
2019-01-30T10:32:07.243Z,98.64
2019-01-30T10:33:17.349Z,98.16
2019-01-30T10:34:27.642Z,98.54
2019-01-30T10:35:37.741Z,98.54
2019-01-30T10:36:47.815Z,98.54
2019-01-30T10:37:57.949Z,98.54
2019-01-30T10:39:08.077Z,98.45
2019-01-30T10:40:18.156Z,98.45
2019-01-30T10:41:28.231Z,98.64
2019-01-30T10:42:38.076Z,98.64
2019-01-30T10:43:47.937Z,98.54
2019-01-30T10:44:57.568Z,98.64
2019-01-30T10:46:07.667Z,98.73
2019-01-30T10:47:17.921Z,98.73
2019-01-30T10:48:28.019Z,97.88
2019-01-30T10:49:39.500Z,98.26
2019-01-30T10:50:49.569Z,98.26
2019-01-30T10:51:59.386Z,98.26
2019-01-30T10:53:09.726Z,98.07
2019-01-30T10:54:19.848Z,98.07
2019-01-30T10:55:29.971Z,98.16
2019-01-30T10:56:39.779Z,98.35
2019-01-30T10:57:49.860Z,98.21
2019-01-30T10:58:59.936Z,98.59
2019-01-30T11:00:11.018Z,98.4
2019-01-30T11:01:21.219Z,98.59
2019-01-30T11:02:31.296Z,98.83
2019-01-30T11:03:41.354Z,98.07
2019-01-30T11:05:02.263Z,98.35
2019-01-30T11:06:12.468Z,98.69
2019-01-30T11:07:22.544Z,98.4
2019-01-30T11:08:34.446Z,98.12
2019-01-30T11:09:44.529Z,97.83
2019-01-30T11:10:54.596Z,98.31
2019-01-30T11:12:15.255Z,98.12
2019-01-30T11:13:25.321Z,98.21
2019-01-30T11:14:35.375Z,97.83
2019-01-30T11:15:46.436Z,97.64
2019-01-30T11:16:56.243Z,97.74
2019-01-30T11:18:06.303Z,97.64
2019-01-30T11:19:16.457Z,97.83
2019-01-30T11:20:26.522Z,97.74
2019-01-30T11:21:36.324Z,97.83
2019-01-30T11:22:46.370Z,97.74
2019-01-30T11:23:58.981Z,97.92
2019-01-30T11:25:09.977Z,98.02
2019-01-30T11:26:20.059Z,97.78
2019-01-30T11:27:30.879Z,97.92
2019-01-30T11:28:40.939Z,97.55
2019-01-30T11:29:50.847Z,97.74
2019-01-30T11:31:00.967Z,98.21
2019-01-30T11:32:11.039Z,97.92
2019-01-30T11:33:21.110Z,98.21
2019-01-30T11:34:31.196Z,97.92
2019-01-30T11:35:41.254Z,98.21
2019-01-30T11:36:50.801Z,98.21
2019-01-30T11:38:03.128Z,97.92
2019-01-30T11:39:14.604Z,98.31
2019-01-30T11:40:24.677Z,98.5
2019-01-30T11:41:34.727Z,98.55
2019-01-30T11:42:44.849Z,98.5
2019-01-30T11:43:54.911Z,98.21
2019-01-30T11:45:04.800Z,98.07
2019-01-30T11:46:15.075Z,98.17
2019-01-30T11:47:25.277Z,98.55
2019-01-30T11:48:35.039Z,98.26
2019-01-30T11:49:44.572Z,98.5
2019-01-30T11:50:54.710Z,99.07
2019-01-30T11:52:05.420Z,99.02
2019-01-30T11:53:15.497Z,98.97
2019-01-30T11:54:25.613Z,98.12
2019-01-30T11:55:46.311Z,97.97
2019-01-30T11:56:56.365Z,98.31
2019-01-30T11:58:07.496Z,98.17
2019-01-30T11:59:17.889Z,98.45
2019-01-30T12:00:27.947Z,97.97
2019-01-30T12:01:37.493Z,98.55
2019-01-30T12:02:50.558Z,98.26
2019-01-30T12:04:01.363Z,98.21
2019-01-30T12:05:20.921Z,98.5
2019-01-30T12:06:30.958Z,98.55
2019-01-30T12:07:41.018Z,98.55
2019-01-30T12:08:51.078Z,98.26
2019-01-30T12:10:01.497Z,98.26
2019-01-30T12:11:11.641Z,98.55
2019-01-30T12:12:21.452Z,98.26
2019-01-30T12:13:31.269Z,98.45
2019-01-30T12:14:41.146Z,98.55
2019-01-30T12:15:51.219Z,98.26
2019-01-30T12:17:03.439Z,98.26
2019-01-30T12:18:13.524Z,98.07
2019-01-30T12:19:23.357Z,98.26
2019-01-30T12:20:33.425Z,98.45
2019-01-30T12:21:43.013Z,98.07
2019-01-30T12:22:53.076Z,98.45
2019-01-30T12:24:03.411Z,98.07
2019-01-30T12:25:13.491Z,98.36
2019-01-30T12:26:23.552Z,98.17
2019-01-30T12:27:33.630Z,97.88
2019-01-30T12:28:43.694Z,98.17
2019-01-30T12:29:53.535Z,98.17
2019-01-30T12:31:03.599Z,98.07
2019-01-30T12:32:13.689Z,98.45
2019-01-30T12:33:23.783Z,97.97
2019-01-30T12:34:33.868Z,98.55
2019-01-30T12:35:43.936Z,98.55
2019-01-30T12:36:54.263Z,98.36
2019-01-30T12:38:06.022Z,98.17
2019-01-30T12:39:15.839Z,98.74
2019-01-30T12:40:25.880Z,98.74
2019-01-30T12:41:38.265Z,98.69
2019-01-30T12:42:48.371Z,98.5
2019-01-30T12:43:58.460Z,98.5
2019-01-30T12:45:08.650Z,99.26
2019-01-30T12:46:18.727Z,99.26
2019-01-30T12:47:29.920Z,99.64
2019-01-30T12:48:39.726Z,99.07
2019-01-30T12:49:51.956Z,98.79
2019-01-30T12:51:02.589Z,98.97
2019-01-30T12:52:12.712Z,99.16
2019-01-30T12:53:22.787Z,98.69
2019-01-30T12:54:32.844Z,99.07
2019-01-30T12:55:42.905Z,99.07
2019-01-30T12:56:52.943Z,98.88
2019-01-30T12:58:03.784Z,99.35
2019-01-30T12:59:13.897Z,98.92
2019-01-30T13:00:24.220Z,98.88
2019-01-30T13:01:34.755Z,99.16
2019-01-30T13:02:44.587Z,99.07
2019-01-30T13:03:54.399Z,98.92
2019-01-30T13:05:05.046Z,98.79
2019-01-30T13:06:15.151Z,99.26
2019-01-30T13:07:25.237Z,98.4
2019-01-30T13:08:35.311Z,98.4
2019-01-30T13:09:45.477Z,98.59
2019-01-30T13:10:55.639Z,98.45
2019-01-30T13:12:05.700Z,98.31
2019-01-30T13:13:15.812Z,98.59
2019-01-30T13:14:25.901Z,98.64
2019-01-30T13:15:35.986Z,98.69
2019-01-30T13:16:46.492Z,98.64
2019-01-30T13:17:56.564Z,98.54
2019-01-30T13:19:20.341Z,98.45
2019-01-30T13:20:30.443Z,98.45
2019-01-30T13:21:40.583Z,98.54
2019-01-30T13:22:50.496Z,98.35
2019-01-30T13:24:02.242Z,98.64
2019-01-30T13:25:12.303Z,98.92
2019-01-30T13:26:22.397Z,98.73
2019-01-30T13:27:32.584Z,98.54
2019-01-30T13:28:42.640Z,98.92
2019-01-30T13:29:52.723Z,98.35
2019-01-30T13:31:02.815Z,98.64
2019-01-30T13:32:13.165Z,98.54
2019-01-30T13:33:23.336Z,98.64
2019-01-30T13:34:33.150Z,98.92
2019-01-30T13:35:51.919Z,99.16
2019-01-30T13:37:02.183Z,99.44
2019-01-30T13:38:12.233Z,99.3
2019-01-30T13:39:22.307Z,99.02
2019-01-30T13:40:32.366Z,99.54
2019-01-30T13:41:42.440Z,99.99
2019-01-30T13:42:52.565Z,99.99
2019-01-30T13:44:02.822Z,99.87
2019-01-30T13:45:12.893Z,99.63
2019-01-30T13:46:22.967Z,99.99
2019-01-30T13:47:35.303Z,99.99
2019-01-30T13:48:45.256Z,99.99
2019-01-30T13:49:55.434Z,99.99
2019-01-30T13:51:05.266Z,99.99
2019-01-30T13:52:16.840Z,99.99
2019-01-30T13:53:26.972Z,99.68
2019-01-30T13:54:37.083Z,99.99
2019-01-30T13:55:47.191Z,99.96
2019-01-30T13:56:57.076Z,99.99
2019-01-30T13:58:07.934Z,99.58
2019-01-30T13:59:18.068Z,99.58
2019-01-30T14:00:28.390Z,99.2
2019-01-30T14:01:38.625Z,99.2
2019-01-30T14:02:48.746Z,99.39
2019-01-30T14:03:58.579Z,99.49
2019-01-30T14:05:08.201Z,99.01
2019-01-30T14:06:18.039Z,99.58
2019-01-30T14:07:28.460Z,99.49
2019-01-30T14:08:38.274Z,99.96
2019-01-30T14:09:48.534Z,99.87
2019-01-30T14:10:58.914Z,99.77
2019-01-30T14:12:09.401Z,99.99
2019-01-30T14:13:19.320Z,99.82
2019-01-30T14:14:29.663Z,99.99
2019-01-30T14:15:39.910Z,99.99
2019-01-30T14:16:50.192Z,99.99
2019-01-30T14:18:00.081Z,99.99
2019-01-30T14:19:10.214Z,99.99
2019-01-30T14:20:20.466Z,99.99
2019-01-30T14:21:30.607Z,99.99
2019-01-30T14:22:40.702Z,99.99
2019-01-30T14:23:50.737Z,99.72
2019-01-30T14:25:00.608Z,99.99
2019-01-30T14:26:10.814Z,99.63
2019-01-30T14:27:20.774Z,99.82
2019-01-30T14:28:30.648Z,99.99
2019-01-30T14:29:40.623Z,99.53
2019-01-30T14:31:02.351Z,99.15
2019-01-30T14:32:14.943Z,99.25
2019-01-30T14:33:25.274Z,99.34
2019-01-30T14:34:35.690Z,99.44
2019-01-30T14:35:45.799Z,99.53
2019-01-30T14:36:55.464Z,99.99
2019-01-30T14:38:07.907Z,99.82
2019-01-30T14:39:18.054Z,99.91
2019-01-30T14:40:27.892Z,99.82
2019-01-30T14:41:37.856Z,99.72
2019-01-30T14:42:48.334Z,99.63
2019-01-30T14:43:58.299Z,99.99
2019-01-30T14:45:08.118Z,99.86
2019-01-30T14:46:18.621Z,99.96
2019-01-30T14:47:28.817Z,99.99
2019-01-30T14:48:39.038Z,99.99
2019-01-30T14:49:49.197Z,99.99
2019-01-30T14:50:59.378Z,99.99
2019-01-30T14:52:09.542Z,99.99
2019-01-30T14:53:21.873Z,99.99
2019-01-30T14:54:31.991Z,99.99
2019-01-30T14:55:42.230Z,99.99
2019-01-30T14:56:52.122Z,99.99
2019-01-30T14:58:02.266Z,99.99
2019-01-30T14:59:12.570Z,99.99
2019-01-30T15:00:22.838Z,99.99
2019-01-30T15:01:32.976Z,99.99
2019-01-30T15:02:43.211Z,99.99
2019-01-30T15:03:53.399Z,99.99
2019-01-30T15:05:03.559Z,99.99
2019-01-30T15:06:24.783Z,99.99
2019-01-30T15:07:35.031Z,99.99
2019-01-30T15:08:45.205Z,99.99
2019-01-30T15:09:55.320Z,99.99
2019-01-30T15:11:08.622Z,99.99
2019-01-30T15:12:18.602Z,99.86
2019-01-30T15:13:28.781Z,99.67
2019-01-30T15:14:38.930Z,99.77
2019-01-30T15:15:49.225Z,99.86
2019-01-30T15:16:59.501Z,99.96
2019-01-30T15:18:09.686Z,99.99
2019-01-30T15:19:19.795Z,99.96
2019-01-30T15:20:29.821Z,99.86
2019-01-30T15:21:39.942Z,99.96
2019-01-30T15:22:50.053Z,99.86
2019-01-30T15:24:00.636Z,99.99
2019-01-30T15:25:10.684Z,99.99
2019-01-30T15:26:20.497Z,99.99
2019-01-30T15:27:30.621Z,99.99
2019-01-30T15:28:40.673Z,99.99
2019-01-30T15:29:50.236Z,99.99
2019-01-30T15:31:00.318Z,99.99
2019-01-30T15:32:10.404Z,99.99
2019-01-30T15:33:20.029Z,99.99
2019-01-30T15:34:30.121Z,99.99
2019-01-30T15:35:40.187Z,99.99
2019-01-30T15:36:49.772Z,99.99
2019-01-30T15:37:59.667Z,99.99
2019-01-30T15:39:09.736Z,99.99
2019-01-30T15:40:19.803Z,99.99